createdAt,value
2022-09-15T00:00:29.143Z,17.80
2022-09-15T00:02:56.237Z,17.83
2022-09-15T00:05:23.022Z,17.93
2022-09-15T00:07:49.670Z,18.02
2022-09-15T00:10:17.472Z,18.18
2022-09-15T00:12:44.388Z,18.03
2022-09-15T00:15:14.777Z,18.07
2022-09-15T00:17:42.634Z,18.10
2022-09-15T00:20:09.985Z,18.30
2022-09-15T00:22:36.602Z,18.05
2022-09-15T00:25:03.451Z,18.18
2022-09-15T00:27:31.930Z,18.19
2022-09-15T00:29:58.569Z,18.36
2022-09-15T00:32:25.352Z,18.57
2022-09-15T00:34:52.002Z,18.70
2022-09-15T00:37:18.618Z,18.96
2022-09-15T00:39:45.357Z,19.00
2022-09-15T00:42:17.396Z,19.09
2022-09-15T00:44:57.293Z,18.78
2022-09-15T00:47:29.052Z,17.94
2022-09-15T00:50:16.049Z,17.97
2022-09-15T00:52:48.924Z,18.20
2022-09-15T00:55:21.200Z,18.00
2022-09-15T00:57:56.141Z,18.07
2022-09-15T01:00:24.862Z,18.17
2022-09-15T01:02:51.845Z,17.94
2022-09-15T01:05:22.277Z,17.96
2022-09-15T01:08:02.057Z,17.92
2022-09-15T01:10:34.846Z,17.95
2022-09-15T01:13:07.230Z,18.02
2022-09-15T01:15:56.812Z,18.11
2022-09-15T01:18:35.451Z,18.14
2022-09-15T01:21:20.116Z,18.18
2022-09-15T01:24:28.050Z,17.91
2022-09-15T01:27:41.715Z,17.69
2022-09-15T01:30:09.313Z,17.51
2022-09-15T01:33:07.554Z,17.70
2022-09-15T01:35:52.571Z,17.85
2022-09-15T01:38:43.723Z,17.84
2022-09-15T01:41:25.516Z,17.86
2022-09-15T01:44:03.969Z,17.87
2022-09-15T01:46:34.441Z,17.58
2022-09-15T01:49:03.517Z,17.68
2022-09-15T01:51:31.989Z,17.59
2022-09-15T01:54:02.687Z,17.50
2022-09-15T01:56:29.589Z,17.46
2022-09-15T01:58:56.184Z,17.39
2022-09-15T02:01:32.227Z,17.49
2022-09-15T02:04:05.390Z,17.56
2022-09-15T02:06:39.808Z,17.65
2022-09-15T02:09:29.718Z,17.64
2022-09-15T02:12:20.019Z,17.63
2022-09-15T02:15:03.541Z,17.75
2022-09-15T02:17:32.758Z,17.86
2022-09-15T02:20:08.864Z,17.82
2022-09-15T02:22:40.261Z,18.05
2022-09-15T02:25:14.086Z,18.20
2022-09-15T02:27:46.191Z,18.36
2022-09-15T02:30:15.965Z,18.57
2022-09-15T02:32:50.041Z,18.71
2022-09-15T02:35:17.322Z,18.80
2022-09-15T02:37:44.537Z,18.75
2022-09-15T02:40:11.415Z,18.82
2022-09-15T02:42:39.246Z,18.98
2022-09-15T02:45:06.387Z,19.06
2022-09-15T02:47:32.980Z,18.83
2022-09-15T02:50:00.241Z,18.98
2022-09-15T02:52:26.914Z,18.97
2022-09-15T02:54:54.432Z,18.97
2022-09-15T02:57:21.135Z,18.94
2022-09-15T03:00:06.790Z,18.85
2022-09-15T03:02:34.052Z,18.57
2022-09-15T03:05:00.702Z,18.66
2022-09-15T03:07:28.550Z,18.68
2022-09-15T03:09:55.337Z,18.61
2022-09-15T03:12:21.961Z,18.36
2022-09-15T03:14:48.574Z,18.40
2022-09-15T03:17:15.249Z,18.44
2022-09-15T03:19:41.962Z,18.30
2022-09-15T03:22:09.543Z,17.90
2022-09-15T03:24:37.313Z,17.98
2022-09-15T03:27:04.544Z,18.05
2022-09-15T03:29:31.269Z,18.21
2022-09-15T03:31:57.951Z,18.33
2022-09-15T03:34:24.575Z,18.30
2022-09-15T03:36:51.249Z,18.45
2022-09-15T03:39:17.881Z,18.55
2022-09-15T03:41:44.502Z,18.48
2022-09-15T03:44:11.099Z,18.56
2022-09-15T03:46:37.702Z,18.63
2022-09-15T03:49:04.321Z,18.65
2022-09-15T03:51:31.117Z,18.78
2022-09-15T03:53:57.772Z,18.70
2022-09-15T03:56:31.321Z,18.60
2022-09-15T03:58:59.261Z,18.63
2022-09-15T04:01:26.394Z,18.59
2022-09-15T04:03:53.017Z,18.74
2022-09-15T04:06:21.667Z,18.70
2022-09-15T04:08:49.696Z,18.64
2022-09-15T04:11:17.980Z,18.65
2022-09-15T04:13:45.250Z,18.71
2022-09-15T04:16:15.105Z,18.32
2022-09-15T04:18:41.950Z,18.16
2022-09-15T04:21:14.312Z,18.24
2022-09-15T04:23:42.004Z,18.22
2022-09-15T04:26:18.735Z,18.25
2022-09-15T04:28:45.387Z,18.29
2022-09-15T04:31:14.434Z,18.28
2022-09-15T04:33:43.190Z,18.43
2022-09-15T04:36:15.617Z,18.43
2022-09-15T04:38:42.711Z,18.42
2022-09-15T04:41:10.676Z,18.45
2022-09-15T04:43:37.575Z,18.49
2022-09-15T04:46:04.378Z,18.44
2022-09-15T04:48:31.968Z,18.52
2022-09-15T04:51:07.422Z,18.46
2022-09-15T04:53:35.201Z,18.54
2022-09-15T04:56:07.158Z,18.52
2022-09-15T04:58:38.680Z,18.57
2022-09-15T05:01:11.259Z,18.57
2022-09-15T05:03:38.493Z,18.66
2022-09-15T05:06:07.511Z,18.61
2022-09-15T05:08:34.125Z,18.83
2022-09-15T05:11:02.467Z,18.60
2022-09-15T05:13:29.242Z,18.80
2022-09-15T05:15:55.905Z,18.63
2022-09-15T05:18:22.552Z,18.71
2022-09-15T05:20:49.152Z,18.29
2022-09-15T05:23:15.733Z,18.26
2022-09-15T05:25:42.337Z,18.33
2022-09-15T05:28:08.901Z,18.30
2022-09-15T05:30:40.525Z,18.28
2022-09-15T05:33:09.163Z,18.45
2022-09-15T05:35:35.784Z,18.60
2022-09-15T05:38:02.801Z,18.63
2022-09-15T05:40:29.504Z,18.26
2022-09-15T05:42:56.107Z,18.23
2022-09-15T05:45:22.698Z,18.08
2022-09-15T05:47:49.257Z,18.09
2022-09-15T05:50:16.354Z,18.09
2022-09-15T05:52:43.126Z,18.22
2022-09-15T05:55:10.233Z,18.19
2022-09-15T05:57:36.833Z,18.22
2022-09-15T06:00:04.252Z,18.28
2022-09-15T06:02:31.149Z,18.34
2022-09-15T06:04:58.438Z,18.35
2022-09-15T06:07:25.052Z,18.33
2022-09-15T06:09:51.714Z,18.26
2022-09-15T06:12:19.161Z,18.27
2022-09-15T06:14:47.297Z,18.22
2022-09-15T06:17:13.924Z,18.27
2022-09-15T06:19:40.598Z,18.27
2022-09-15T06:22:07.221Z,18.33
2022-09-15T06:24:33.834Z,18.40
2022-09-15T06:27:00.956Z,18.43
2022-09-15T06:29:28.572Z,18.59
2022-09-15T06:31:57.217Z,18.60
2022-09-15T06:34:23.927Z,18.60
2022-09-15T06:36:50.529Z,18.67
2022-09-15T06:39:17.140Z,18.76
2022-09-15T06:42:01.265Z,18.76
2022-09-15T06:44:28.663Z,18.71
2022-09-15T06:46:55.340Z,18.67
2022-09-15T06:49:22.007Z,18.79
2022-09-15T06:51:48.853Z,18.81
2022-09-15T06:54:16.285Z,18.85
2022-09-15T06:56:43.889Z,18.79
2022-09-15T06:59:15.129Z,18.80
2022-09-15T07:01:42.333Z,18.70
2022-09-15T07:04:09.903Z,18.72
2022-09-15T07:06:38.426Z,18.70
2022-09-15T07:09:05.668Z,18.71
2022-09-15T07:11:33.233Z,18.82
2022-09-15T07:13:59.886Z,18.73
2022-09-15T07:16:26.666Z,18.72
2022-09-15T07:18:55.975Z,18.77
2022-09-15T07:21:23.073Z,18.74
2022-09-15T07:23:49.985Z,18.68
2022-09-15T07:26:22.381Z,18.50
2022-09-15T07:28:52.292Z,18.53
2022-09-15T07:31:21.343Z,18.46
2022-09-15T07:33:48.269Z,18.23
2022-09-15T07:36:15.474Z,18.20
2022-09-15T07:38:44.775Z,18.38
2022-09-15T07:41:14.149Z,18.28
2022-09-15T07:43:45.029Z,18.05
2022-09-15T07:46:11.655Z,17.60
2022-09-15T07:48:38.290Z,17.66
2022-09-15T07:51:05.030Z,17.48
2022-09-15T07:53:31.742Z,17.25
2022-09-15T07:55:58.321Z,17.12
2022-09-15T07:58:25.537Z,16.86
2022-09-15T08:00:52.582Z,16.88
2022-09-15T08:03:19.254Z,16.84
2022-09-15T08:05:46.260Z,16.76
2022-09-15T08:08:13.359Z,16.67
2022-09-15T08:10:41.349Z,16.76
2022-09-15T08:13:08.558Z,16.83
2022-09-15T08:15:37.489Z,16.79
2022-09-15T08:18:05.174Z,17.04
2022-09-15T08:20:32.240Z,16.98
2022-09-15T08:22:59.172Z,17.00
2022-09-15T08:25:25.864Z,16.98
2022-09-15T08:27:54.547Z,16.92
2022-09-15T08:30:21.416Z,16.83
2022-09-15T08:32:48.585Z,16.83
2022-09-15T08:35:16.043Z,16.92
2022-09-15T08:37:42.773Z,16.98
2022-09-15T08:40:23.735Z,17.12
2022-09-15T08:42:55.519Z,17.01
2022-09-15T08:45:26.304Z,17.01
2022-09-15T08:47:58.749Z,17.10
2022-09-15T08:50:41.823Z,17.14
2022-09-15T08:53:16.679Z,17.26
2022-09-15T08:55:48.944Z,17.22
2022-09-15T08:58:21.625Z,17.23
2022-09-15T09:00:52.182Z,17.30
2022-09-15T09:03:35.565Z,17.32
2022-09-15T09:06:20.840Z,17.19
2022-09-15T09:08:50.477Z,17.19
2022-09-15T09:11:35.625Z,17.39
2022-09-15T09:14:14.229Z,17.59
2022-09-15T09:16:53.287Z,17.62
2022-09-15T09:19:23.043Z,17.62
2022-09-15T09:21:57.174Z,17.35
2022-09-15T09:24:39.341Z,17.26
2022-09-15T09:27:13.185Z,17.29
2022-09-15T09:29:49.601Z,17.21
2022-09-15T09:32:21.844Z,17.05
2022-09-15T09:34:58.916Z,16.96
2022-09-15T09:37:25.631Z,17.11
2022-09-15T09:39:52.334Z,17.12
2022-09-15T09:42:19.667Z,17.08
2022-09-15T09:44:47.146Z,17.05
2022-09-15T09:47:14.174Z,16.96
2022-09-15T09:49:48.994Z,17.15
2022-09-15T09:52:36.030Z,17.16
2022-09-15T09:55:23.457Z,17.20
2022-09-15T09:57:50.263Z,17.25
2022-09-15T10:00:36.790Z,17.30
2022-09-15T10:03:17.756Z,17.31
2022-09-15T10:05:45.324Z,17.44
2022-09-15T10:08:17.174Z,17.60
2022-09-15T10:10:52.118Z,17.65
2022-09-15T10:13:19.206Z,17.65
2022-09-15T10:15:53.295Z,17.70
2022-09-15T10:18:38.810Z,17.82
2022-09-15T10:21:08.993Z,17.88
2022-09-15T10:23:36.313Z,17.98
2022-09-15T10:26:17.966Z,18.05
2022-09-15T10:29:05.159Z,18.17
2022-09-15T10:31:32.800Z,18.26
2022-09-15T10:34:24.921Z,18.24
2022-09-15T10:36:55.089Z,18.33
2022-09-15T10:39:46.099Z,18.36
2022-09-15T10:42:24.530Z,18.40
2022-09-15T10:44:51.757Z,18.43
2022-09-15T10:47:36.330Z,18.53
2022-09-15T10:50:27.158Z,18.72
2022-09-15T10:52:59.782Z,18.82
2022-09-15T10:55:53.440Z,18.93
2022-09-15T10:58:35.649Z,18.95
2022-09-15T11:01:51.565Z,18.90
2022-09-15T11:04:27.057Z,19.10
2022-09-15T11:07:15.905Z,19.21
2022-09-15T11:09:48.342Z,19.24
2022-09-15T11:12:41.652Z,19.41
2022-09-15T11:15:37.445Z,19.47
2022-09-15T11:18:21.981Z,19.51
2022-09-15T11:21:09.225Z,19.45
2022-09-15T11:23:36.266Z,19.47
2022-09-15T11:26:13.764Z,19.31
2022-09-15T11:28:50.372Z,19.74
2022-09-15T11:31:19.957Z,19.64
2022-09-15T11:33:53.665Z,19.86
2022-09-15T11:36:28.342Z,19.82
2022-09-15T11:39:04.669Z,20.04
2022-09-15T11:41:44.136Z,20.15
2022-09-15T11:44:25.961Z,20.48
2022-09-15T11:47:05.299Z,20.61
2022-09-15T11:49:40.739Z,20.81
2022-09-15T11:52:28.845Z,21.28
2022-09-15T11:55:02.819Z,21.55
2022-09-15T11:57:43.417Z,21.93
2022-09-15T12:00:15.037Z,22.49
2022-09-15T12:02:58.058Z,22.86
2022-09-15T12:05:30.159Z,22.94
2022-09-15T12:08:02.763Z,22.56
2022-09-15T12:10:39.830Z,22.46
2022-09-15T12:13:07.898Z,22.39
2022-09-15T12:15:34.711Z,22.51
2022-09-15T12:21:01.962Z,22.64
2022-09-15T12:23:34.697Z,22.74
2022-09-15T12:26:20.945Z,22.81
2022-09-15T12:28:50.832Z,22.53
2022-09-15T12:31:25.676Z,22.82
2022-09-15T12:34:04.234Z,23.07
2022-09-15T12:36:41.472Z,23.38
2022-09-15T12:39:32.429Z,23.60
2022-09-15T12:42:31.402Z,24.08
2022-09-15T12:45:06.772Z,24.22
2022-09-15T12:47:40.513Z,24.49
2022-09-15T12:50:15.942Z,24.26
2022-09-15T12:52:47.205Z,24.55
2022-09-15T12:55:31.845Z,24.80
2022-09-15T12:58:01.536Z,24.99
2022-09-15T13:00:35.848Z,25.00
2022-09-15T13:03:04.326Z,25.06
2022-09-15T13:06:13.699Z,25.60
2022-09-15T13:08:55.021Z,25.37
2022-09-15T13:11:40.205Z,25.35
2022-09-15T13:14:16.611Z,24.97
2022-09-15T13:16:59.656Z,25.19
2022-09-15T13:19:41.596Z,25.25
2022-09-15T13:22:11.266Z,25.45
2022-09-15T13:25:01.597Z,25.54
2022-09-15T13:27:54.758Z,25.36
2022-09-15T13:30:21.527Z,25.20
2022-09-15T13:36:23.842Z,24.07
2022-09-15T13:38:53.349Z,23.47
2022-09-15T13:41:34.910Z,23.11
2022-09-15T13:44:30.978Z,22.95
2022-09-15T13:47:15.066Z,22.80
2022-09-15T13:50:09.617Z,22.75
2022-09-15T13:53:25.570Z,22.68
2022-09-15T13:55:55.607Z,22.64
2022-09-15T14:01:13.137Z,22.55
2022-09-15T14:03:48.989Z,22.45
2022-09-15T14:06:19.741Z,22.60
2022-09-15T14:08:55.252Z,22.27
2022-09-15T14:11:25.971Z,22.15
2022-09-15T14:13:54.124Z,22.18
2022-09-15T14:16:26.343Z,21.87
2022-09-15T14:18:55.090Z,21.54
2022-09-15T14:21:33.576Z,21.40
2022-09-15T14:24:06.114Z,21.24
2022-09-15T14:26:35.762Z,21.15
2022-09-15T14:29:07.222Z,20.99
2022-09-15T14:31:37.918Z,21.00
2022-09-15T14:34:16.269Z,21.09
2022-09-15T14:36:43.178Z,20.94
2022-09-15T14:39:12.588Z,21.04
2022-09-15T14:41:40.224Z,21.20
2022-09-15T14:47:28.055Z,21.13
2022-09-15T14:50:13.659Z,21.26
2022-09-15T14:53:02.230Z,21.33
2022-09-15T14:55:48.238Z,21.28
2022-09-15T14:58:37.621Z,21.22
2022-09-15T15:01:32.727Z,20.98
2022-09-15T15:04:09.866Z,21.12
2022-09-15T15:07:03.765Z,20.84
2022-09-15T15:09:37.798Z,21.17
2022-09-15T15:12:23.721Z,21.38
2022-09-15T15:14:54.164Z,21.23
2022-09-15T15:17:39.997Z,21.51
2022-09-15T15:20:09.352Z,21.46
2022-09-15T15:22:41.670Z,21.60
2022-09-15T15:25:34.661Z,21.85
2022-09-15T15:28:01.490Z,21.65
2022-09-15T15:30:31.169Z,21.60
2022-09-15T15:33:24.584Z,21.93
2022-09-15T15:36:05.917Z,21.86
2022-09-15T15:38:42.673Z,21.93
2022-09-15T15:41:22.985Z,22.11
2022-09-15T15:44:09.326Z,21.96
2022-09-15T15:46:59.301Z,22.04
2022-09-15T15:49:29.262Z,21.86
2022-09-15T15:51:59.913Z,21.84
2022-09-15T15:54:26.625Z,21.78
2022-09-15T15:56:53.651Z,21.63
2022-09-15T15:59:21.122Z,21.76
2022-09-15T16:01:51.598Z,21.69
2022-09-15T16:04:18.462Z,21.60
2022-09-15T16:06:45.984Z,21.65
2022-09-15T16:09:14.809Z,21.82
2022-09-15T16:11:43.097Z,21.60
2022-09-15T16:14:13.473Z,21.69
2022-09-15T16:16:41.015Z,21.69
2022-09-15T16:19:08.613Z,21.79
2022-09-15T16:21:38.709Z,21.89
2022-09-15T16:24:06.651Z,21.93
2022-09-15T16:26:35.679Z,22.10
2022-09-15T16:29:02.489Z,22.04
2022-09-15T16:31:29.500Z,22.02
2022-09-15T16:33:56.625Z,21.98
2022-09-15T16:36:23.353Z,21.83
2022-09-15T16:38:50.124Z,21.58
2022-09-15T16:41:20.061Z,21.63
2022-09-15T16:43:47.501Z,21.57
2022-09-15T16:46:15.168Z,21.64
2022-09-15T16:48:43.466Z,21.71
2022-09-15T16:51:34.500Z,21.70
2022-09-15T16:54:01.173Z,21.78
2022-09-15T16:56:27.884Z,21.83
2022-09-15T16:58:59.624Z,21.23
2022-09-15T17:01:27.016Z,20.63
2022-09-15T17:03:53.724Z,20.47
2022-09-15T17:06:22.124Z,20.17
2022-09-15T17:08:49.324Z,19.90
2022-09-15T17:11:18.393Z,19.81
2022-09-15T17:13:45.254Z,19.50
2022-09-15T17:16:15.426Z,19.26
2022-09-15T17:18:42.116Z,19.04
2022-09-15T17:21:13.085Z,18.87
2022-09-15T17:23:43.038Z,18.72
2022-09-15T17:26:20.866Z,18.55
2022-09-15T17:28:47.813Z,18.29
2022-09-15T17:31:21.793Z,17.98
2022-09-15T17:33:49.766Z,17.94
2022-09-15T17:36:17.029Z,18.22
2022-09-15T17:38:45.408Z,18.02
2022-09-15T17:41:16.742Z,17.84
2022-09-15T17:43:43.658Z,17.85
2022-09-15T17:46:10.617Z,17.70
2022-09-15T17:48:38.992Z,17.56
2022-09-15T17:51:07.201Z,17.28
2022-09-15T17:53:34.272Z,17.20
2022-09-15T17:56:01.116Z,17.26
2022-09-15T17:58:29.989Z,17.21
2022-09-15T18:00:57.598Z,17.21
2022-09-15T18:03:35.653Z,17.11
2022-09-15T18:06:07.991Z,16.94
2022-09-15T18:08:36.161Z,17.04
2022-09-15T18:11:04.843Z,17.08
2022-09-15T18:13:31.782Z,17.16
2022-09-15T18:16:04.213Z,17.12
2022-09-15T18:18:30.854Z,17.19
2022-09-15T18:20:58.428Z,17.13
2022-09-15T18:23:29.417Z,17.00
2022-09-15T18:25:56.677Z,17.10
2022-09-15T18:28:23.243Z,17.00
2022-09-15T18:30:50.851Z,17.04
2022-09-15T18:33:19.877Z,17.10
2022-09-15T18:35:49.127Z,17.05
2022-09-15T18:38:16.539Z,17.07
2022-09-15T18:40:55.450Z,17.14
2022-09-15T18:43:25.271Z,17.26
2022-09-15T18:45:53.288Z,17.16
2022-09-15T18:48:19.925Z,17.01
2022-09-15T18:50:46.633Z,17.04
2022-09-15T18:53:13.540Z,17.00
2022-09-15T18:55:41.951Z,16.97
2022-09-15T18:58:08.933Z,16.97
2022-09-15T19:00:35.688Z,16.89
2022-09-15T19:03:04.253Z,17.12
2022-09-15T19:05:32.085Z,17.04
2022-09-15T19:07:58.840Z,17.02
2022-09-15T19:10:26.772Z,17.07
2022-09-15T19:12:53.868Z,17.05
2022-09-15T19:15:23.613Z,17.05
2022-09-15T19:17:50.657Z,16.99
2022-09-15T19:20:17.568Z,16.81
2022-09-15T19:22:44.167Z,16.89
2022-09-15T19:25:11.571Z,16.93
2022-09-15T19:27:39.626Z,17.01
2022-09-15T19:30:09.951Z,17.01
2022-09-15T19:32:37.825Z,16.96
2022-09-15T19:35:04.868Z,16.84
2022-09-15T19:37:31.562Z,16.73
2022-09-15T19:39:58.164Z,16.74
2022-09-15T19:42:24.825Z,16.90
2022-09-15T19:44:51.647Z,16.94
2022-09-15T19:47:18.242Z,16.98
2022-09-15T19:49:44.870Z,17.05
2022-09-15T19:52:12.887Z,17.08
2022-09-15T19:54:39.727Z,17.14
2022-09-15T19:57:06.444Z,17.13
2022-09-15T19:59:33.077Z,16.87
2022-09-15T20:02:00.806Z,16.69
2022-09-15T20:04:28.709Z,16.75
2022-09-15T20:06:55.368Z,17.20
2022-09-15T20:09:22.088Z,16.99
2022-09-15T20:11:48.789Z,17.12
2022-09-15T20:14:15.916Z,17.44
2022-09-15T20:16:42.693Z,17.26
2022-09-15T20:19:09.389Z,16.67
2022-09-15T20:21:49.854Z,16.54
2022-09-15T20:24:17.895Z,16.56
2022-09-15T20:26:44.534Z,16.60
2022-09-15T20:29:11.901Z,16.13
2022-09-15T20:31:38.856Z,16.15
2022-09-15T20:34:05.521Z,16.47
2022-09-15T20:36:34.159Z,16.55
2022-09-15T20:39:03.349Z,16.83
2022-09-15T20:41:32.089Z,16.98
2022-09-15T20:43:59.754Z,17.15
2022-09-15T20:46:29.289Z,17.32
2022-09-15T20:48:55.897Z,17.43
2022-09-15T20:51:25.768Z,17.40
2022-09-15T20:53:55.180Z,17.20
2022-09-15T20:56:25.608Z,17.31
2022-09-15T20:58:54.428Z,17.41
2022-09-15T21:01:23.745Z,17.43
2022-09-15T21:03:50.486Z,17.49
2022-09-15T21:06:20.161Z,17.50
2022-09-15T21:08:48.154Z,17.61
2022-09-15T21:11:16.427Z,17.64
2022-09-15T21:13:44.080Z,17.68
2022-09-15T21:16:14.203Z,17.78
2022-09-15T21:18:42.049Z,17.81
2022-09-15T21:21:11.113Z,17.79
2022-09-15T21:23:43.785Z,17.61
2022-09-15T21:26:12.783Z,17.52
2022-09-15T21:28:39.382Z,17.58
2022-09-15T21:31:11.801Z,17.63
2022-09-15T21:33:39.374Z,17.58
2022-09-15T21:36:09.554Z,17.49
2022-09-15T21:38:37.986Z,17.53
2022-09-15T21:41:08.434Z,17.38
2022-09-15T21:43:37.311Z,17.21
2022-09-15T21:46:05.766Z,17.17
2022-09-15T21:48:34.838Z,17.09
2022-09-15T21:51:02.550Z,17.19
2022-09-15T21:53:29.450Z,17.23
2022-09-15T21:56:00.934Z,16.94
2022-09-15T21:58:32.062Z,16.61
2022-09-15T22:00:58.738Z,16.47
2022-09-15T22:03:25.363Z,16.66
2022-09-15T22:05:52.038Z,16.72
2022-09-15T22:08:18.606Z,16.56
2022-09-15T22:10:45.296Z,16.29
2022-09-15T22:13:12.566Z,16.40
2022-09-15T22:15:39.175Z,16.27
2022-09-15T22:18:06.774Z,16.37
2022-09-15T22:20:33.429Z,16.30
2022-09-15T22:23:01.392Z,16.02
2022-09-15T22:25:29.043Z,16.13
2022-09-15T22:27:55.683Z,16.08
2022-09-15T22:30:22.330Z,16.05
2022-09-15T22:32:48.955Z,16.27
2022-09-15T22:35:17.371Z,16.35
2022-09-15T22:37:44.053Z,16.30
2022-09-15T22:40:11.208Z,16.19
2022-09-15T22:42:38.074Z,16.18
2022-09-15T22:45:05.163Z,16.18
2022-09-15T22:47:33.162Z,16.33
2022-09-15T22:49:59.846Z,16.54
2022-09-15T22:52:26.436Z,16.58
2022-09-15T22:54:53.008Z,16.51
2022-09-15T22:57:19.582Z,16.66
2022-09-15T22:59:46.187Z,16.67
2022-09-15T23:02:13.017Z,16.71
2022-09-15T23:04:39.671Z,16.65
2022-09-15T23:07:06.326Z,16.51
2022-09-15T23:09:33.058Z,16.60
2022-09-15T23:11:59.714Z,16.64
2022-09-15T23:14:26.399Z,16.69
2022-09-15T23:16:53.184Z,16.77
2022-09-15T23:19:19.839Z,16.87
2022-09-15T23:21:46.421Z,16.75
2022-09-15T23:24:13.185Z,16.78
2022-09-15T23:26:39.834Z,16.81
2022-09-15T23:29:06.502Z,16.80
2022-09-15T23:31:33.113Z,16.82
2022-09-15T23:33:59.803Z,16.79
2022-09-15T23:36:26.448Z,16.89
2022-09-15T23:38:53.137Z,16.81
2022-09-15T23:41:19.891Z,16.81
2022-09-15T23:43:47.298Z,16.76
2022-09-15T23:46:14.504Z,16.80
2022-09-15T23:48:41.207Z,16.80
2022-09-15T23:51:08.037Z,16.84
2022-09-15T23:53:35.198Z,16.77
2022-09-15T23:56:02.722Z,16.69
2022-09-15T23:58:29.553Z,16.47
